createdAt,value
2022-11-03T00:01:52.448Z,100453.35
2022-11-03T00:04:21.145Z,100455.52
2022-11-03T00:06:53.150Z,100451.73
2022-11-03T00:09:21.335Z,100454.77
2022-11-03T00:11:52.994Z,100454.80
2022-11-03T00:14:19.956Z,100455.23
2022-11-03T00:16:47.552Z,100461.17
2022-11-03T00:19:16.495Z,100460.88
2022-11-03T00:21:44.137Z,100467.38
2022-11-03T00:24:11.483Z,100464.17
2022-11-03T00:26:38.684Z,100471.02
2022-11-03T00:29:11.412Z,100466.61
2022-11-03T00:31:40.673Z,100470.75
2022-11-03T00:34:08.427Z,100469.77
2022-11-03T00:36:37.675Z,100471.21
2022-11-03T00:39:05.525Z,100470.19
2022-11-03T00:41:32.583Z,100471.50
2022-11-03T00:43:59.457Z,100469.16
2022-11-03T00:46:26.849Z,100468.81
2022-11-03T00:48:53.690Z,100472.45
2022-11-03T00:51:23.660Z,100470.23
2022-11-03T00:53:55.996Z,100472.01
2022-11-03T00:56:43.857Z,100470.26
2022-11-03T00:59:10.587Z,100472.80
2022-11-03T01:01:45.329Z,100463.23
2022-11-03T01:04:31.888Z,100472.85
2022-11-03T01:07:00.109Z,100470.67
2022-11-03T01:09:39.164Z,100469.85
2022-11-03T01:12:09.503Z,100466.41
2022-11-03T01:14:44.906Z,100468.15
2022-11-03T01:17:26.472Z,100465.09
2022-11-03T01:19:54.171Z,100466.46
2022-11-03T01:22:23.063Z,100466.44
2022-11-03T01:24:51.374Z,100466.13
2022-11-03T01:27:19.986Z,100468.77
2022-11-03T01:29:46.684Z,100472.80
2022-11-03T01:32:14.393Z,100472.19
2022-11-03T01:34:41.070Z,100472.55
2022-11-03T01:37:07.969Z,100473.30
2022-11-03T01:39:34.856Z,100468.90
2022-11-03T01:42:01.676Z,100468.17
2022-11-03T01:44:34.976Z,100474.49
2022-11-03T01:47:08.632Z,100475.58
2022-11-03T01:49:44.160Z,100474.86
2022-11-03T01:52:25.365Z,100470.48
2022-11-03T01:54:58.964Z,100474.11
2022-11-03T01:57:35.847Z,100475.38
2022-11-03T02:00:04.414Z,100480.16
2022-11-03T02:02:40.603Z,100480.24
2022-11-03T02:05:10.224Z,100482.34
2022-11-03T02:07:43.841Z,100477.88
2022-11-03T02:10:10.822Z,100477.58
2022-11-03T02:12:38.825Z,100480.27
2022-11-03T02:15:09.332Z,100482.09
2022-11-03T02:17:37.621Z,100478.30
2022-11-03T02:20:13.249Z,100483.38
2022-11-03T02:22:54.962Z,100482.61
2022-11-03T02:25:36.822Z,100489.34
2022-11-03T02:28:05.631Z,100484.83
2022-11-03T02:30:41.415Z,100491.39
2022-11-03T02:33:29.824Z,100494.84
2022-11-03T02:36:04.200Z,100498.27
2022-11-03T02:38:34.423Z,100503.63
2022-11-03T02:41:06.289Z,100502.27
2022-11-03T02:43:34.130Z,100503.45
2022-11-03T02:46:04.648Z,100504.05
2022-11-03T02:48:31.923Z,100505.11
2022-11-03T02:50:58.665Z,100504.61
2022-11-03T02:53:28.640Z,100498.52
2022-11-03T02:56:04.535Z,100501.84
2022-11-03T02:58:48.181Z,100504.05
2022-11-03T03:01:46.908Z,100501.41
2022-11-03T03:04:21.956Z,100502.33
2022-11-03T03:06:54.900Z,100503.94
2022-11-03T03:09:27.240Z,100501.08
2022-11-03T03:11:56.969Z,100497.96
2022-11-03T03:14:36.124Z,100501.08
2022-11-03T03:17:12.441Z,100501.82
2022-11-03T03:20:04.701Z,100505.09
2022-11-03T03:22:37.287Z,100503.81
2022-11-03T03:25:52.427Z,100502.69
2022-11-03T03:28:25.133Z,100501.69
2022-11-03T03:30:56.051Z,100497.09
2022-11-03T03:33:25.104Z,100501.83
2022-11-03T03:35:53.724Z,100504.13
2022-11-03T03:38:32.296Z,100503.52
2022-11-03T03:41:03.444Z,100509.98
2022-11-03T03:43:33.972Z,100504.64
2022-11-03T03:46:06.359Z,100507.70
2022-11-03T03:48:33.605Z,100506.79
2022-11-03T03:51:02.415Z,100508.69
2022-11-03T03:53:29.958Z,100510.27
2022-11-03T03:55:57.758Z,100506.53
2022-11-03T03:58:24.436Z,100505.16
2022-11-03T04:00:51.194Z,100503.69
2022-11-03T04:03:21.216Z,100502.60
2022-11-03T04:05:48.644Z,100506.11
2022-11-03T04:08:16.828Z,100508.05
2022-11-03T04:11:23.062Z,100513.17
2022-11-03T04:14:08.631Z,100508.63
2022-11-03T04:16:53.920Z,100510.23
2022-11-03T04:19:39.507Z,100507.02
2022-11-03T04:22:16.822Z,100497.11
2022-11-03T04:24:48.342Z,100495.92
2022-11-03T04:27:18.059Z,100497.32
2022-11-03T04:29:45.003Z,100500.91
2022-11-03T04:32:17.298Z,100502.38
2022-11-03T04:34:48.067Z,100500.08
2022-11-03T04:37:15.402Z,100493.13
2022-11-03T04:39:42.143Z,100499.92
2022-11-03T04:42:17.306Z,100503.56
2022-11-03T04:44:45.231Z,100511.02
2022-11-03T04:47:13.377Z,100512.49
2022-11-03T04:49:40.709Z,100517.73
2022-11-03T04:52:21.913Z,100520.89
2022-11-03T04:54:52.602Z,100528.48
2022-11-03T04:57:19.362Z,100533.77
2022-11-03T04:59:52.433Z,100539.56
2022-11-03T05:02:21.373Z,100537.14
2022-11-03T05:04:48.322Z,100537.48
2022-11-03T05:07:28.407Z,100534.61
2022-11-03T05:09:56.057Z,100531.86
2022-11-03T05:12:22.963Z,100534.33
2022-11-03T05:14:54.097Z,100537.35
2022-11-03T05:17:25.665Z,100544.17
2022-11-03T05:20:01.978Z,100551.55
2022-11-03T05:22:35.489Z,100551.98
2022-11-03T05:25:27.420Z,100558.38
2022-11-03T05:27:54.092Z,100562.06
2022-11-03T05:30:20.991Z,100562.65
2022-11-03T05:32:47.991Z,100553.23
2022-11-03T05:35:22.798Z,100551.14
2022-11-03T05:37:50.697Z,100560.69
2022-11-03T05:40:25.386Z,100566.89
2022-11-03T05:43:14.035Z,100570.91
2022-11-03T05:45:41.578Z,100566.05
2022-11-03T05:48:17.294Z,100572.14
2022-11-03T05:50:44.913Z,100574.86
2022-11-03T05:53:29.266Z,100577.86
2022-11-03T05:55:58.004Z,100577.16
2022-11-03T05:58:39.206Z,100576.36
2022-11-03T06:01:24.932Z,100580.92
2022-11-03T06:03:51.933Z,100586.85
2022-11-03T06:06:38.955Z,100586.75
2022-11-03T06:09:16.993Z,100589.80
2022-11-03T06:11:44.013Z,100598.93
2022-11-03T06:14:24.602Z,100605.45
2022-11-03T06:16:54.290Z,100608.46
2022-11-03T06:19:28.094Z,100603.42
2022-11-03T06:21:58.552Z,100599.84
2022-11-03T06:24:31.261Z,100604.42
2022-11-03T06:26:58.237Z,100598.15
2022-11-03T06:29:25.734Z,100594.41
2022-11-03T06:31:57.391Z,100595.73
2022-11-03T06:34:30.040Z,100596.21
2022-11-03T06:37:01.611Z,100600.29
2022-11-03T06:39:28.349Z,100599.89
2022-11-03T06:41:55.038Z,100600.00
2022-11-03T06:44:24.527Z,100599.92
2022-11-03T06:46:56.637Z,100598.21
2022-11-03T06:49:34.199Z,100596.14
2022-11-03T06:52:24.331Z,100599.23
2022-11-03T06:55:15.731Z,100598.33
2022-11-03T06:57:47.289Z,100592.52
2022-11-03T07:00:36.044Z,100596.17
2022-11-03T07:03:20.682Z,100597.41
2022-11-03T07:05:47.544Z,100603.39
2022-11-03T07:08:35.308Z,100602.30
2022-11-03T07:11:23.906Z,100600.36
2022-11-03T07:13:58.012Z,100599.41
2022-11-03T07:16:34.959Z,100597.45
2022-11-03T07:19:12.496Z,100599.58
2022-11-03T07:21:47.674Z,100595.58
2022-11-03T07:24:31.245Z,100595.98
2022-11-03T07:27:20.146Z,100594.00
2022-11-03T07:29:48.944Z,100594.95
2022-11-03T07:32:19.248Z,100594.02
2022-11-03T07:34:47.284Z,100601.16
2022-11-03T07:37:18.446Z,100600.92
2022-11-03T07:39:46.451Z,100602.46
2022-11-03T07:42:21.652Z,100603.46
2022-11-03T07:44:49.750Z,100598.52
2022-11-03T07:47:25.158Z,100599.08
2022-11-03T07:49:55.588Z,100598.34
2022-11-03T07:52:24.737Z,100601.98
2022-11-03T07:54:56.329Z,100601.98
2022-11-03T07:57:23.026Z,100603.98
2022-11-03T07:59:53.200Z,100607.84
2022-11-03T08:02:30.914Z,100608.20
2022-11-03T08:04:58.971Z,100604.24
2022-11-03T08:07:27.435Z,100599.32
2022-11-03T08:09:54.714Z,100601.66
2022-11-03T08:12:21.805Z,100598.45
2022-11-03T08:14:48.605Z,100592.97
2022-11-03T08:17:18.734Z,100592.34
2022-11-03T08:19:45.717Z,100591.58
2022-11-03T08:22:12.554Z,100583.01
2022-11-03T08:24:39.335Z,100585.58
2022-11-03T08:27:06.011Z,100579.63
2022-11-03T08:29:32.809Z,100582.86
2022-11-03T08:31:59.609Z,100582.42
2022-11-03T08:34:26.283Z,100580.39
2022-11-03T08:36:52.940Z,100574.85
2022-11-03T08:39:19.641Z,100574.77
2022-11-03T08:41:46.355Z,100576.88
2022-11-03T08:44:13.024Z,100581.58
2022-11-03T08:46:39.717Z,100581.18
2022-11-03T08:49:06.572Z,100579.70
2022-11-03T08:51:33.364Z,100577.07
2022-11-03T08:54:00.118Z,100572.38
2022-11-03T08:56:26.791Z,100569.86
2022-11-03T08:58:53.459Z,100572.13
2022-11-03T09:01:20.208Z,100573.84
2022-11-03T09:03:47.002Z,100566.81
2022-11-03T09:06:13.732Z,100564.91
2022-11-03T09:11:27.066Z,100563.71
2022-11-03T09:13:53.824Z,100559.30
2022-11-03T09:16:20.477Z,100560.42
2022-11-03T09:18:47.347Z,100561.11
2022-11-03T09:21:14.257Z,100556.27
2022-11-03T09:23:41.120Z,100557.08
2022-11-03T09:26:07.860Z,100553.77
2022-11-03T09:28:34.621Z,100549.38
2022-11-03T09:31:01.360Z,100551.67
2022-11-03T09:33:28.094Z,100549.32
2022-11-03T09:35:54.853Z,100542.83
2022-11-03T09:38:21.503Z,100543.30
2022-11-03T09:43:20.192Z,100538.35
2022-11-03T09:45:47.336Z,100539.05
2022-11-03T09:48:14.737Z,100535.70
2022-11-03T09:50:42.385Z,100533.63
2022-11-03T09:53:11.649Z,100532.59
2022-11-03T09:55:39.098Z,100529.21
2022-11-03T09:58:14.628Z,100527.88
2022-11-03T10:00:41.649Z,100532.63
2022-11-03T10:03:13.701Z,100535.69
2022-11-03T10:05:43.277Z,100532.44
2022-11-03T10:08:29.184Z,100529.70
2022-11-03T10:10:57.325Z,100527.08
2022-11-03T10:13:38.407Z,100526.92
2022-11-03T10:16:11.291Z,100515.83
2022-11-03T10:18:38.137Z,100519.98
2022-11-03T10:21:12.505Z,100514.90
2022-11-03T10:23:39.455Z,100511.95
2022-11-03T10:26:11.793Z,100507.88
2022-11-03T10:28:38.986Z,100508.16
2022-11-03T10:31:18.568Z,100505.36
2022-11-03T10:33:54.181Z,100508.45
2022-11-03T10:36:25.658Z,100500.14
2022-11-03T10:38:53.238Z,100499.74
2022-11-03T10:41:23.033Z,100495.41
2022-11-03T10:44:00.384Z,100494.92
2022-11-03T10:49:18.609Z,100484.57
2022-11-03T10:51:49.053Z,100478.65
2022-11-03T10:54:18.400Z,100474.92
2022-11-03T10:56:46.382Z,100472.06
2022-11-03T10:59:22.649Z,100473.52
2022-11-03T11:01:49.529Z,100475.59
2022-11-03T11:04:18.496Z,100474.05
2022-11-03T11:06:46.121Z,100471.95
2022-11-03T11:09:20.028Z,100466.04
2022-11-03T11:12:05.927Z,100455.73
2022-11-03T11:14:38.815Z,100451.05
2022-11-03T11:17:05.786Z,100452.92
2022-11-03T11:20:11.063Z,100451.19
2022-11-03T11:22:37.858Z,100449.30
2022-11-03T11:25:04.750Z,100447.24
2022-11-03T11:27:31.423Z,100451.35
2022-11-03T11:29:59.923Z,100456.48
2022-11-03T11:32:38.886Z,100457.34
2022-11-03T11:35:11.407Z,100458.03
2022-11-03T11:37:38.174Z,100454.73
2022-11-03T11:40:12.851Z,100450.35
2022-11-03T11:43:12.617Z,100446.80
2022-11-03T11:46:16.960Z,100447.70
2022-11-03T11:48:43.703Z,100448.63
2022-11-03T11:51:11.653Z,100441.13
2022-11-03T11:53:40.673Z,100445.23
2022-11-03T11:56:13.231Z,100444.02
2022-11-03T11:58:48.018Z,100448.02
2022-11-03T12:01:34.415Z,100446.83
2022-11-03T12:06:46.384Z,100439.92
2022-11-03T12:09:13.213Z,100441.34
2022-11-03T12:11:53.907Z,100432.11
2022-11-03T12:14:28.291Z,100428.27
2022-11-03T12:16:56.468Z,100422.96
2022-11-03T12:19:44.305Z,100416.62
2022-11-03T12:22:37.467Z,100420.27
2022-11-03T12:25:10.203Z,100413.66
2022-11-03T12:27:36.973Z,100415.02
2022-11-03T12:30:08.224Z,100412.86
2022-11-03T12:32:35.873Z,100416.98
2022-11-03T12:35:04.692Z,100414.83
2022-11-03T12:37:31.699Z,100414.21
2022-11-03T12:39:58.906Z,100408.23
2022-11-03T12:42:25.940Z,100410.64
2022-11-03T12:44:52.943Z,100407.15
2022-11-03T12:47:20.565Z,100407.14
2022-11-03T12:49:47.523Z,100409.13
2022-11-03T12:52:14.729Z,100407.89
2022-11-03T12:54:41.818Z,100404.80
2022-11-03T12:57:08.728Z,100407.91
2022-11-03T12:59:35.520Z,100410.27
2022-11-03T13:02:02.426Z,100413.09
2022-11-03T13:04:29.212Z,100414.61
2022-11-03T13:06:56.112Z,100410.91
2022-11-03T13:09:22.882Z,100412.17
2022-11-03T13:12:08.267Z,100409.90
2022-11-03T13:14:34.966Z,100409.23
2022-11-03T13:17:03.236Z,100408.25
2022-11-03T13:19:30.130Z,100409.34
2022-11-03T13:21:56.990Z,100406.14
2022-11-03T13:24:23.772Z,100410.71
2022-11-03T13:26:50.461Z,100407.94
2022-11-03T13:29:17.186Z,100406.48
2022-11-03T13:31:43.863Z,100409.77
2022-11-03T13:34:10.524Z,100406.87
2022-11-03T13:36:37.251Z,100410.17
2022-11-03T13:39:04.149Z,100408.98
2022-11-03T13:41:30.874Z,100413.08
2022-11-03T13:43:57.606Z,100417.21
2022-11-03T13:46:24.409Z,100416.86
2022-11-03T13:51:37.770Z,100420.23
2022-11-03T13:59:38.285Z,100424.75
2022-11-03T14:04:52.775Z,100417.27
2022-11-03T14:07:19.506Z,100414.36
2022-11-03T14:09:46.488Z,100414.20
2022-11-03T14:12:31.701Z,100412.40
2022-11-03T14:15:04.431Z,100412.91
2022-11-03T14:17:31.299Z,100411.13
2022-11-03T14:20:03.843Z,100414.52
2022-11-03T14:22:32.296Z,100414.48
2022-11-03T14:25:00.457Z,100406.17
2022-11-03T14:27:27.501Z,100415.02
2022-11-03T14:29:54.479Z,100417.92
2022-11-03T14:32:21.184Z,100421.03
2022-11-03T14:34:48.031Z,100425.23
2022-11-03T14:37:15.460Z,100427.25
2022-11-03T14:39:42.431Z,100425.11
2022-11-03T14:42:16.525Z,100429.73
2022-11-03T14:44:45.748Z,100425.41
2022-11-03T14:47:18.066Z,100424.86
2022-11-03T14:49:45.769Z,100425.16
2022-11-03T14:52:13.301Z,100425.27
2022-11-03T14:54:40.000Z,100424.91
2022-11-03T14:57:09.109Z,100424.06
2022-11-03T14:59:36.842Z,100421.25
2022-11-03T15:02:05.329Z,100423.73
2022-11-03T15:04:32.268Z,100415.06
2022-11-03T15:06:59.052Z,100422.40
2022-11-03T15:09:25.791Z,100422.23
2022-11-03T15:11:52.594Z,100421.52
2022-11-03T15:14:19.358Z,100422.33
2022-11-03T15:16:46.263Z,100420.81
2022-11-03T15:19:13.201Z,100419.20
2022-11-03T15:21:39.907Z,100422.05
2022-11-03T15:26:53.441Z,100422.38
2022-11-03T15:29:20.159Z,100423.05
2022-11-03T15:31:48.420Z,100427.92
2022-11-03T15:34:15.957Z,100429.09
2022-11-03T15:36:42.674Z,100428.42
2022-11-03T15:39:09.374Z,100428.77
2022-11-03T15:41:36.156Z,100427.85
2022-11-03T15:44:02.988Z,100428.16
2022-11-03T15:46:29.645Z,100425.42
2022-11-03T15:48:56.958Z,100432.52
2022-11-03T15:51:23.741Z,100429.18
2022-11-03T15:53:56.688Z,100426.02
2022-11-03T15:56:26.469Z,100423.77
2022-11-03T15:58:53.135Z,100421.86
2022-11-03T16:01:19.928Z,100420.05
2022-11-03T16:03:48.338Z,100418.70
2022-11-03T16:06:15.617Z,100420.45
2022-11-03T16:08:42.440Z,100424.27
2022-11-03T16:11:09.371Z,100423.95
2022-11-03T16:13:36.105Z,100426.65
2022-11-03T16:16:03.198Z,100433.63
2022-11-03T16:18:29.931Z,100429.14
2022-11-03T16:20:56.634Z,100431.73
2022-11-03T16:23:24.215Z,100431.75
2022-11-03T16:25:50.966Z,100430.85
2022-11-03T16:28:17.655Z,100433.70
2022-11-03T16:30:46.377Z,100434.64
2022-11-03T16:33:16.565Z,100436.55
2022-11-03T16:35:43.345Z,100440.48
2022-11-03T16:38:10.393Z,100443.23
2022-11-03T16:40:37.419Z,100440.14
2022-11-03T16:43:04.087Z,100441.98
2022-11-03T16:45:36.381Z,100444.20
2022-11-03T16:48:05.577Z,100443.98
2022-11-03T16:50:32.927Z,100445.05
2022-11-03T16:52:59.729Z,100445.99
2022-11-03T16:55:26.550Z,100444.67
2022-11-03T16:57:53.228Z,100447.38
2022-11-03T17:00:21.013Z,100449.27
2022-11-03T17:02:47.823Z,100451.41
2022-11-03T17:05:16.903Z,100451.38
2022-11-03T17:07:50.057Z,100453.52
2022-11-03T17:10:20.138Z,100456.41
2022-11-03T17:12:46.805Z,100456.70
2022-11-03T17:15:13.513Z,100462.09
2022-11-03T17:17:40.909Z,100463.88
2022-11-03T17:20:10.080Z,100461.97
2022-11-03T17:22:37.001Z,100459.79
2022-11-03T17:25:08.913Z,100456.17
2022-11-03T17:27:54.680Z,100457.84
2022-11-03T17:30:24.143Z,100455.73
2022-11-03T17:32:55.109Z,100456.70
2022-11-03T17:35:38.943Z,100452.64
2022-11-03T17:38:14.187Z,100449.55
2022-11-03T17:40:43.380Z,100447.16
2022-11-03T17:43:29.601Z,100444.11
2022-11-03T17:45:56.341Z,100447.73
2022-11-03T17:48:23.662Z,100448.25
2022-11-03T17:50:53.134Z,100452.60
2022-11-03T17:53:24.094Z,100450.20
2022-11-03T17:56:23.390Z,100449.69
2022-11-03T17:58:45.860Z,100450.57
2022-11-03T18:01:20.534Z,100451.91
2022-11-03T18:03:47.276Z,100454.02
2022-11-03T18:06:18.335Z,100449.68
2022-11-03T18:08:46.347Z,100449.41
2022-11-03T18:11:35.320Z,100451.76
2022-11-03T18:14:03.207Z,100450.51
2022-11-03T18:16:30.958Z,100450.21
2022-11-03T18:18:58.260Z,100446.18
2022-11-03T18:21:26.088Z,100447.14
2022-11-03T18:23:52.740Z,100444.92
2022-11-03T18:26:22.525Z,100441.73
2022-11-03T18:28:49.929Z,100441.97
2022-11-03T18:31:33.989Z,100438.97
2022-11-03T18:34:03.452Z,100436.39
2022-11-03T18:36:33.166Z,100433.33
2022-11-03T18:39:00.324Z,100433.77
2022-11-03T18:41:36.203Z,100439.04
2022-11-03T18:44:13.423Z,100436.81
2022-11-03T18:46:40.285Z,100441.48
2022-11-03T18:49:07.037Z,100441.94
2022-11-03T18:51:33.978Z,100438.70
2022-11-03T18:54:01.071Z,100436.33
2022-11-03T18:56:28.126Z,100434.66
2022-11-03T18:58:56.678Z,100433.17
2022-11-03T19:01:27.354Z,100432.05
2022-11-03T19:03:55.989Z,100431.23
2022-11-03T19:06:23.867Z,100428.08
2022-11-03T19:08:59.003Z,100427.37
2022-11-03T19:11:26.546Z,100431.97
2022-11-03T19:13:53.894Z,100430.98
2022-11-03T19:16:23.404Z,100425.98
2022-11-03T19:18:51.685Z,100428.98
2022-11-03T19:21:23.515Z,100436.23
2022-11-03T19:23:55.492Z,100435.05
2022-11-03T19:26:34.063Z,100440.67
2022-11-03T19:29:04.755Z,100440.15
2022-11-03T19:31:36.229Z,100442.02
2022-11-03T19:34:05.586Z,100439.52
2022-11-03T19:36:32.714Z,100441.06
2022-11-03T19:39:00.556Z,100439.81
2022-11-03T19:41:45.968Z,100438.39
2022-11-03T19:44:13.229Z,100441.70
2022-11-03T19:46:41.540Z,100443.11
2022-11-03T19:49:14.437Z,100439.85
2022-11-03T19:51:41.516Z,100443.36
2022-11-03T19:54:20.126Z,100441.36
2022-11-03T19:56:47.543Z,100444.67
2022-11-03T19:59:16.147Z,100444.44
2022-11-03T20:01:44.863Z,100449.42
2022-11-03T20:04:11.837Z,100448.20
2022-11-03T20:06:40.447Z,100446.05
2022-11-03T20:09:14.575Z,100448.80
2022-11-03T20:11:41.471Z,100445.27
2022-11-03T20:14:15.141Z,100442.41
2022-11-03T20:16:41.855Z,100438.48
2022-11-03T20:19:08.950Z,100439.46
2022-11-03T20:21:35.813Z,100445.82
2022-11-03T20:24:04.346Z,100443.59
2022-11-03T20:26:31.196Z,100443.03
2022-11-03T20:28:58.513Z,100442.18
2022-11-03T20:31:25.187Z,100441.59
2022-11-03T20:33:51.868Z,100440.77
2022-11-03T20:36:19.886Z,100441.40
2022-11-03T20:38:55.125Z,100443.55
2022-11-03T20:41:21.835Z,100443.89
2022-11-03T20:43:49.223Z,100446.89
2022-11-03T20:46:36.956Z,100446.73
2022-11-03T20:49:03.827Z,100446.21
2022-11-03T20:51:33.597Z,100446.02
2022-11-03T20:54:03.674Z,100440.02
2022-11-03T20:56:30.355Z,100435.42
2022-11-03T20:58:57.777Z,100438.14
2022-11-03T21:01:32.402Z,100440.70
2022-11-03T21:04:00.800Z,100438.11
2022-11-03T21:06:30.744Z,100442.31
2022-11-03T21:08:58.422Z,100440.21
2022-11-03T21:11:29.079Z,100439.16
2022-11-03T21:14:01.811Z,100438.66
2022-11-03T21:16:48.303Z,100434.85
2022-11-03T21:19:39.594Z,100437.13
2022-11-03T21:22:51.472Z,100435.26
2022-11-03T21:25:21.183Z,100429.15
2022-11-03T21:27:49.120Z,100425.11
2022-11-03T21:30:17.465Z,100426.23
2022-11-03T21:32:44.843Z,100422.32
2022-11-03T21:35:17.222Z,100423.83
2022-11-03T21:37:44.681Z,100424.25
2022-11-03T21:40:11.925Z,100417.95
2022-11-03T21:42:57.468Z,100420.41
2022-11-03T21:45:24.790Z,100419.48
2022-11-03T21:48:13.899Z,100415.98
2022-11-03T21:50:42.199Z,100414.08
2022-11-03T21:53:10.797Z,100412.38
2022-11-03T21:55:38.407Z,100413.33
2022-11-03T21:58:05.530Z,100407.41
2022-11-03T22:00:32.781Z,100408.35
2022-11-03T22:03:00.371Z,100413.05
2022-11-03T22:05:27.821Z,100409.20
2022-11-03T22:07:54.645Z,100405.92
2022-11-03T22:10:21.471Z,100400.59
2022-11-03T22:12:48.219Z,100395.52
2022-11-03T22:15:34.027Z,100391.73
2022-11-03T22:18:05.870Z,100389.05
2022-11-03T22:20:54.024Z,100385.70
2022-11-03T22:23:39.437Z,100368.31
2022-11-03T22:26:31.026Z,100368.34
2022-11-03T22:29:18.926Z,100365.09
2022-11-03T22:31:45.839Z,100359.45
2022-11-03T22:34:31.549Z,100356.48
2022-11-03T22:36:58.260Z,100355.35
2022-11-03T22:39:43.432Z,100347.80
2022-11-03T22:42:30.497Z,100346.14
2022-11-03T22:45:15.975Z,100350.52
2022-11-03T22:47:42.849Z,100354.60
2022-11-03T22:50:09.708Z,100361.90
2022-11-03T22:52:36.451Z,100368.48
2022-11-03T22:55:03.463Z,100366.07
2022-11-03T22:57:30.135Z,100365.17
2022-11-03T22:59:56.894Z,100366.17
2022-11-03T23:02:23.760Z,100362.52
2022-11-03T23:04:50.896Z,100358.45
2022-11-03T23:07:17.555Z,100365.73
2022-11-03T23:09:44.986Z,100365.85
2022-11-03T23:12:11.750Z,100367.16
2022-11-03T23:14:57.582Z,100367.95
2022-11-03T23:17:44.184Z,100362.27
2022-11-03T23:20:29.775Z,100358.27
2022-11-03T23:22:56.644Z,100355.40
2022-11-03T23:25:23.371Z,100349.68
2022-11-03T23:27:51.964Z,100343.34
2022-11-03T23:30:18.746Z,100338.71
2022-11-03T23:32:45.538Z,100330.95
2022-11-03T23:35:14.029Z,100328.71
2022-11-03T23:37:40.770Z,100328.19
2022-11-03T23:40:08.030Z,100324.30
2022-11-03T23:42:34.745Z,100323.15
2022-11-03T23:45:20.251Z,100322.42
2022-11-03T23:48:05.732Z,100324.66
2022-11-03T23:50:32.737Z,100332.70
2022-11-03T23:52:59.418Z,100340.04
2022-11-03T23:55:46.068Z,100338.96
2022-11-03T23:58:18.638Z,100339.58
